Time;durP1;ratioP1;P1;durP2;ratioP2;P2;SDS_P1;SDS_P2;PMS_P1;PMS_P2;Temp;Humidity;BMP_temperature;BMP_pressure;BME280_temperature;BME280_humidity;BME280_pressure;Samples;Min_cycle;Max_cycle;Signal;HPM_P1;HPM_P2
2022/03/19 00:00:26;;;;;;;7.40;3.63;;;;;;;11.64;50.12;104285.66;5103344;28;20063;-57
2022/03/19 00:02:54;;;;;;;8.95;3.08;;;;;;;11.62;50.21;104283.09;5099738;28;20044;-57
2022/03/19 00:05:22;;;;;;;9.07;4.00;;;;;;;11.61;50.20;104276.00;5103695;28;20535;-57
2022/03/19 00:07:50;;;;;;;8.82;4.03;;;;;;;11.60;50.20;104295.00;5095062;28;20494;-57
2022/03/19 00:10:20;;;;;;;7.40;3.85;;;;;;;11.55;50.26;104289.19;5101931;28;20044;-57
2022/03/19 00:12:48;;;;;;;7.13;3.95;;;;;;;11.57;50.32;104292.59;5100097;28;20059;-57
2022/03/19 00:15:17;;;;;;;7.90;3.63;;;;;;;11.55;50.22;104289.19;5097488;28;20075;-57
2022/03/19 00:17:46;;;;;;;10.77;3.72;;;;;;;11.53;50.34;104294.72;5084909;28;20100;-57
2022/03/19 00:20:14;;;;;;;8.85;3.55;;;;;;;11.53;50.51;104294.72;5103000;28;20055;-57
2022/03/19 00:22:42;;;;;;;7.85;3.90;;;;;;;11.50;50.45;104295.03;5102846;28;20074;-57
2022/03/19 00:25:11;;;;;;;8.75;3.97;;;;;;;11.49;50.50;104295.16;5089078;28;20417;-57
2022/03/19 00:27:41;;;;;;;6.53;3.30;;;;;;;11.47;50.61;104298.00;5103690;28;20055;-57
2022/03/19 00:30:09;;;;;;;8.25;3.40;;;;;;;11.45;50.51;104285.66;5097154;28;20421;-56
2022/03/19 00:32:37;;;;;;;9.88;4.40;;;;;;;11.44;50.56;104292.06;5096031;28;20087;-57
2022/03/19 00:35:10;;;;;;;10.30;4.00;;;;;;;11.36;50.60;104277.47;5103563;28;20071;-57
2022/03/19 00:37:46;;;;;;;7.72;3.75;;;;;;;11.39;50.66;104279.88;5097714;28;20136;-57
2022/03/19 00:40:16;;;;;;;8.52;4.97;;;;;;;11.37;50.58;104278.31;5101654;28;20059;-56
2022/03/19 00:42:44;;;;;;;10.73;3.92;;;;;;;11.36;50.78;104279.31;5103353;28;20119;-57
2022/03/19 00:45:12;;;;;;;9.02;3.83;;;;;;;11.37;50.80;104281.00;5098123;28;20076;-57
2022/03/19 00:47:40;;;;;;;12.93;4.15;;;;;;;11.36;50.85;104282.00;5106575;28;20040;-56
2022/03/19 00:50:10;;;;;;;8.98;3.97;;;;;;;11.35;50.94;104281.13;5107286;28;20163;-57
2022/03/19 00:52:38;;;;;;;10.27;3.92;;;;;;;11.32;50.68;104277.88;5097161;28;20062;-57
2022/03/19 00:55:07;;;;;;;7.28;4.15;;;;;;;11.34;50.82;104278.59;5106027;28;20067;-56
2022/03/19 00:57:41;;;;;;;7.53;3.60;;;;;;;11.33;50.81;104277.75;5105651;28;20187;-57
2022/03/19 01:00:11;;;;;;;9.07;3.60;;;;;;;11.33;50.74;104276.91;5105094;28;20086;-57
2022/03/19 01:02:40;;;;;;;8.50;4.05;;;;;;;11.31;50.76;104273.50;5105921;28;20122;-56
2022/03/19 01:05:11;;;;;;;7.43;3.97;;;;;;;11.30;50.84;104272.66;5107261;28;20052;-57
2022/03/19 01:07:44;;;;;;;9.15;3.88;;;;;;;11.30;50.96;104274.47;5097255;28;20067;-56
2022/03/19 01:10:13;;;;;;;7.57;3.78;;;;;;;11.28;50.91;104263.84;5105550;28;20124;-56
2022/03/19 01:12:41;;;;;;;9.35;3.70;;;;;;;11.28;50.94;104268.38;5104890;28;20404;-57
2022/03/19 01:15:10;;;;;;;12.57;3.65;;;;;;;11.26;51.02;104271.22;5105437;28;20075;-56
2022/03/19 01:17:38;;;;;;;9.02;3.90;;;;;;;11.24;51.10;104266.97;5095401;28;20047;-56
2022/03/19 01:20:07;;;;;;;9.50;3.70;;;;;;;11.22;51.16;104260.88;5106696;28;20051;-56
2022/03/19 01:22:36;;;;;;;8.93;4.22;;;;;;;11.21;51.06;104256.50;5101042;28;20068;-57
2022/03/19 01:25:05;;;;;;;8.70;4.18;;;;;;;11.21;51.25;104256.50;5105520;28;20193;-56
2022/03/19 01:27:33;;;;;;;9.82;4.18;;;;;;;11.20;51.19;104255.66;5102975;28;20112;-55
2022/03/19 01:30:01;;;;;;;8.23;3.92;;;;;;;11.18;51.25;104254.09;5102647;28;20066;-57
2022/03/19 01:32:29;;;;;;;10.65;4.40;;;;;;;11.15;51.33;104255.22;5105641;28;20059;-57
2022/03/19 01:34:57;;;;;;;8.23;3.70;;;;;;;11.12;51.69;104251.97;5106126;28;20071;-56
2022/03/19 01:37:25;;;;;;;8.40;4.55;;;;;;;11.10;51.50;104252.09;5101844;28;20132;-57
2022/03/19 01:39:55;;;;;;;10.85;4.65;;;;;;;11.07;51.51;104255.06;5101948;28;20051;-57
2022/03/19 01:42:24;;;;;;;9.05;4.03;;;;;;;11.05;51.55;104251.69;5105966;28;20147;-57
2022/03/19 01:44:52;;;;;;;10.68;4.63;;;;;;;10.95;51.81;104218.53;5102266;28;20428;-56
2022/03/19 01:47:21;;;;;;;11.88;4.88;;;;;;;11.03;51.53;104242.91;5105793;28;20072;-57
2022/03/19 01:49:49;;;;;;;5.88;3.72;;;;;;;11.04;51.54;104247.28;5108538;28;20097;-57
2022/03/19 01:52:17;;;;;;;10.48;4.40;;;;;;;11.03;51.70;104243.75;5104758;28;20131;-57
2022/03/19 01:54:47;;;;;;;7.38;3.72;;;;;;;11.03;51.76;104242.91;5104514;28;20075;-57
2022/03/19 01:57:18;;;;;;;9.40;4.32;;;;;;;10.99;51.57;104233.41;5105826;28;20067;-57
2022/03/19 01:59:47;;;;;;;13.45;4.97;;;;;;;10.95;51.78;104245.44;5098396;28;20086;-57
2022/03/19 02:02:14;;;;;;;10.73;4.82;;;;;;;10.91;52.16;104239.50;5105452;28;20064;-57
2022/03/19 02:04:44;;;;;;;7.80;4.82;;;;;;;10.90;51.90;104240.47;5102839;28;20131;-56
2022/03/19 02:07:13;;;;;;;9.57;4.40;;;;;;;10.90;52.31;104239.63;5102137;28;20504;-57
2022/03/19 02:09:41;;;;;;;12.35;5.40;;;;;;;10.89;52.27;104236.09;5103996;28;20079;-56
2022/03/19 02:12:10;;;;;;;9.23;4.80;;;;;;;10.88;52.18;104236.22;5104600;28;20075;-57
2022/03/19 02:14:40;;;;;;;13.15;5.03;;;;;;;10.88;52.30;104238.94;5103011;28;20091;-56
2022/03/19 02:17:09;;;;;;;9.88;5.15;;;;;;;10.88;52.27;104238.94;5103716;28;20116;-57
2022/03/19 02:19:47;;;;;;;9.85;4.63;;;;;;;10.86;51.83;104230.13;5103167;28;20052;-57
2022/03/19 02:22:16;;;;;;;8.68;4.43;;;;;;;10.85;51.80;104218.53;5101347;28;20052;-56
2022/03/19 02:27:31;;;;;;;13.77;5.18;;;;;;;10.82;52.35;104215.28;5100597;28;20090;-56
2022/03/19 02:29:59;;;;;;;11.32;4.80;;;;;;;10.82;52.02;104220.66;5102537;28;20515;-56
2022/03/19 02:32:27;;;;;;;12.23;5.88;;;;;;;10.80;51.97;104220.78;5104104;28;20123;-56
2022/03/19 02:34:55;;;;;;;10.75;4.75;;;;;;;10.78;52.08;104212.00;5097328;28;20086;-57
2022/03/19 02:37:23;;;;;;;9.48;4.85;;;;;;;10.77;52.05;104205.78;5104188;28;20044;-56
2022/03/19 02:39:52;;;;;;;8.68;4.80;;;;;;;10.79;51.91;104200.25;5101995;28;20083;-56
2022/03/19 02:42:21;;;;;;;11.73;5.28;;;;;;;10.74;52.08;104194.44;5095451;28;20055;-56
2022/03/19 02:44:49;;;;;;;12.07;5.65;;;;;;;10.77;52.32;104196.84;5102734;28;20055;-56
2022/03/19 02:47:16;;;;;;;9.98;4.95;;;;;;;10.78;52.05;104195.88;5102884;28;20702;-56
2022/03/19 02:49:44;;;;;;;9.93;5.47;;;;;;;10.78;51.78;104195.88;5099967;28;20044;-56
2022/03/19 02:52:12;;;;;;;8.85;5.07;;;;;;;10.79;52.31;104200.25;5101082;28;20083;-56
2022/03/19 02:54:40;;;;;;;9.18;4.80;;;;;;;10.81;51.99;104194.75;5096483;28;20596;-56
2022/03/19 02:57:09;;;;;;;9.75;5.00;;;;;;;10.78;51.86;104198.56;5095673;28;20045;-56
2022/03/19 02:59:36;;;;;;;9.65;4.88;;;;;;;10.77;52.14;104197.72;5102494;28;20103;-57
2022/03/19 03:02:07;;;;;;;12.32;5.25;;;;;;;10.75;52.09;104198.84;5101588;28;20055;-57
2022/03/19 03:04:36;;;;;;;11.20;6.00;;;;;;;10.74;52.40;104195.31;5099743;28;20048;-56
2022/03/19 03:07:05;;;;;;;12.30;5.32;;;;;;;10.73;52.17;104193.59;5100584;28;20082;-56
2022/03/19 03:09:33;;;;;;;10.50;5.20;;;;;;;10.72;52.58;104196.44;5093509;28;20101;-57
2022/03/19 03:12:02;;;;;;;12.07;5.32;;;;;;;10.70;52.06;104193.03;5098210;28;20075;-56
2022/03/19 03:14:31;;;;;;;12.63;5.10;;;;;;;10.68;52.31;104200.41;5090013;28;20140;-56
2022/03/19 03:17:00;;;;;;;9.65;5.82;;;;;;;10.55;52.39;104180.97;5102518;28;20056;-56
2022/03/19 03:19:33;;;;;;;10.38;5.18;;;;;;;10.59;52.41;104191.31;5099162;28;20075;-56
2022/03/19 03:22:01;;;;;;;13.38;6.18;;;;;;;10.63;52.48;104199.97;5102412;28;20078;-56
2022/03/19 03:24:29;;;;;;;9.98;5.80;;;;;;;10.60;52.49;104194.88;5094643;28;20126;-54
2022/03/19 03:26:56;;;;;;;11.35;6.03;;;;;;;10.59;52.26;104195.84;5102605;28;20044;-56
2022/03/19 03:29:24;;;;;;;14.40;6.43;;;;;;;10.56;52.61;104196.13;5099753;28;20072;-57
2022/03/19 03:31:53;;;;;;;13.18;5.82;;;;;;;10.55;52.32;104202.50;5099196;28;20048;-57
2022/03/19 03:34:21;;;;;;;16.15;6.28;;;;;;;10.54;52.30;104200.81;5102091;28;20059;-57
2022/03/19 03:36:49;;;;;;;10.65;5.05;;;;;;;10.51;52.39;104201.09;5099470;28;20520;-57
2022/03/19 03:39:17;;;;;;;11.43;6.13;;;;;;;10.52;52.63;104202.78;5100827;28;20488;-55
2022/03/19 03:41:44;;;;;;;12.20;5.82;;;;;;;10.53;52.48;104201.78;5104514;28;20103;-56
2022/03/19 03:44:12;;;;;;;10.52;7.03;;;;;;;10.51;52.44;104204.63;5103580;28;20088;-56
2022/03/19 03:46:40;;;;;;;9.18;5.57;;;;;;;10.50;52.73;104202.06;5103006;28;20063;-57
2022/03/19 03:49:09;;;;;;;12.30;5.75;;;;;;;10.50;52.94;104204.75;5100369;28;20044;-58
2022/03/19 03:51:38;;;;;;;11.90;5.38;;;;;;;10.49;52.43;104197.69;5103672;28;20047;-57
2022/03/19 03:54:07;;;;;;;13.35;7.00;;;;;;;10.49;52.84;104195.00;5100849;28;20482;-57
2022/03/19 03:56:36;;;;;;;9.65;5.95;;;;;;;10.43;52.33;104191.88;5104019;28;20086;-56
2022/03/19 03:59:05;;;;;;;12.15;6.20;;;;;;;10.43;52.82;104199.94;5100113;28;20138;-57
2022/03/19 04:01:32;;;;;;;11.98;6.75;;;;;;;10.42;53.04;104192.00;5103397;28;20535;-56
2022/03/19 04:04:00;;;;;;;10.63;6.13;;;;;;;10.41;52.73;104191.16;5098233;28;20118;-56
2022/03/19 04:06:29;;;;;;;11.13;5.78;;;;;;;10.41;52.76;104190.31;5096038;28;20048;-56
2022/03/19 04:08:57;;;;;;;13.52;6.13;;;;;;;10.40;52.45;104183.25;5102278;28;20064;-56
2022/03/19 04:11:25;;;;;;;8.73;6.10;;;;;;;10.40;52.72;104186.78;5098828;28;20044;-56
2022/03/19 04:13:52;;;;;;;13.20;6.78;;;;;;;10.41;53.09;104182.25;5103092;28;20496;-55
2022/03/19 04:16:23;;;;;;;10.65;6.65;;;;;;;10.39;53.15;104181.56;5103507;28;20203;-56
2022/03/19 04:18:51;;;;;;;12.05;5.57;;;;;;;10.38;52.96;104180.72;5103074;28;20165;-56
2022/03/19 04:21:19;;;;;;;11.10;6.28;;;;;;;10.38;53.22;104182.56;5095846;28;20056;-56
2022/03/19 04:23:48;;;;;;;13.35;7.10;;;;;;;10.36;52.73;104169.25;5103161;28;20048;-56
2022/03/19 04:26:16;;;;;;;11.85;6.38;;;;;;;10.35;52.66;104172.94;5100850;28;20051;-56
2022/03/19 04:28:43;;;;;;;12.25;6.35;;;;;;;10.35;52.88;104174.75;5102739;28;20062;-56
2022/03/19 04:31:11;;;;;;;14.15;7.50;;;;;;;10.34;53.29;104173.06;5102949;28;20072;-56
2022/03/19 04:33:39;;;;;;;11.70;5.95;;;;;;;10.35;52.88;104174.75;5099816;28;20058;-56
2022/03/19 04:38:53;;;;;;;12.25;6.65;;;;;;;10.31;52.91;104170.66;5100719;28;20079;-56
2022/03/19 04:41:21;;;;;;;14.38;6.43;;;;;;;10.28;52.98;104170.94;5098330;28;20513;-57
2022/03/19 04:43:49;;;;;;;14.90;6.53;;;;;;;10.26;53.08;104167.53;5099312;28;20119;-57
2022/03/19 04:46:17;;;;;;;8.93;5.60;;;;;;;10.26;53.44;104156.78;5097257;28;20053;-57
2022/03/19 04:48:45;;;;;;;13.70;7.00;;;;;;;10.24;53.57;104161.44;5101586;28;20055;-57
2022/03/19 04:51:14;;;;;;;12.18;6.50;;;;;;;10.19;53.27;104152.91;5102561;28;20112;-58
2022/03/19 04:53:42;;;;;;;12.88;6.78;;;;;;;10.20;53.29;104157.31;5100424;28;20108;-56
2022/03/19 04:56:11;;;;;;;10.93;6.03;;;;;;;10.17;53.00;104165.63;5102017;28;20084;-57
2022/03/19 04:58:38;;;;;;;11.00;6.35;;;;;;;10.15;53.62;104152.34;5093241;28;20052;-56
2022/03/19 05:01:06;;;;;;;13.63;6.45;;;;;;;10.14;53.28;104160.53;5095727;28;20082;-56
2022/03/19 05:03:34;;;;;;;9.23;5.82;;;;;;;10.14;53.36;104164.06;5099422;28;20052;-55
2022/03/19 05:06:02;;;;;;;14.98;6.88;;;;;;;10.13;53.34;104150.78;5099291;28;20078;-57
2022/03/19 05:08:30;;;;;;;11.07;6.07;;;;;;;10.14;53.31;104155.16;5097279;28;20097;-56
2022/03/19 05:11:17;;;;;;;10.00;5.63;;;;;;;10.13;53.68;104156.16;5095166;28;20222;-56
2022/03/19 05:13:48;;;;;;;13.52;6.57;;;;;;;10.08;53.61;104154.72;5091774;28;20170;-55
2022/03/19 05:16:18;;;;;;;9.27;6.07;;;;;;;10.08;53.82;104154.72;5097911;28;20465;-55
2022/03/19 05:18:46;;;;;;;14.93;6.70;;;;;;;10.07;53.74;104155.72;5099762;28;20046;-55
2022/03/19 05:21:13;;;;;;;10.73;6.10;;;;;;;10.09;53.57;104152.88;5096143;28;20083;-56
2022/03/19 05:23:42;;;;;;;11.32;6.68;;;;;;;10.07;53.90;104158.41;5093779;28;20327;-56
2022/03/19 05:26:10;;;;;;;11.02;6.97;;;;;;;10.07;53.84;104158.41;5093258;28;20071;-56
2022/03/19 05:28:37;;;;;;;13.15;6.65;;;;;;;10.05;53.75;104157.69;5095823;28;20080;-55
2022/03/19 05:31:28;;;;;;;13.90;6.57;;;;;;;10.05;53.27;104164.91;5102021;28;20048;-55
2022/03/19 05:36:41;;;;;;;12.77;6.53;;;;;;;10.02;53.91;104167.84;5098688;28;20067;-56
2022/03/19 05:39:08;;;;;;;14.45;6.30;;;;;;;10.02;53.66;104155.28;5098633;28;20087;-56
2022/03/19 05:41:36;;;;;;;16.42;7.32;;;;;;;10.01;53.58;104163.47;5103746;28;20044;-56
2022/03/19 05:44:04;;;;;;;10.07;6.22;;;;;;;9.98;53.63;104163.75;5103134;28;20425;-56
2022/03/19 05:46:34;;;;;;;11.70;6.93;;;;;;;9.98;53.96;104161.06;5105091;28;20055;-56
2022/03/19 05:49:01;;;;;;;15.07;6.85;;;;;;;9.98;53.74;104169.13;5104707;28;20075;-56
2022/03/19 05:51:30;;;;;;;17.10;7.10;;;;;;;9.96;54.03;104171.94;5103223;28;20076;-56
2022/03/19 05:53:57;;;;;;;9.60;6.07;;;;;;;9.96;54.02;104161.19;5104802;28;20117;-56
2022/03/19 05:56:25;;;;;;;13.30;6.50;;;;;;;9.96;53.97;104163.88;5101783;28;20067;-57
2022/03/19 05:58:55;;;;;;;12.60;7.10;;;;;;;9.96;53.13;104166.56;5098092;28;20090;-56
2022/03/19 06:01:26;;;;;;;11.90;7.70;;;;;;;9.96;53.97;104161.19;5099695;28;20116;-56
2022/03/19 06:03:56;;;;;;;12.35;6.65;;;;;;;10.02;53.75;104168.72;5106129;28;20055;-56
2022/03/19 06:06:24;;;;;;;11.00;6.45;;;;;;;10.11;53.71;104165.19;5094227;28;20052;-55
2022/03/19 06:08:51;;;;;;;11.77;6.25;;;;;;;10.25;52.64;104160.44;5102643;28;20107;-56
2022/03/19 06:11:20;;;;;;;10.63;6.60;;;;;;;10.38;52.28;104167.28;5101403;28;20075;-56
2022/03/19 06:13:48;;;;;;;10.30;5.95;;;;;;;10.55;51.99;104171.06;5105148;28;20063;-56
2022/03/19 06:16:15;;;;;;;11.77;6.72;;;;;;;10.67;51.95;104169.09;5095273;28;20080;-56
2022/03/19 06:18:46;;;;;;;10.57;5.68;;;;;;;10.75;51.16;104171.94;5098632;28;20048;-55
2022/03/19 06:21:15;;;;;;;12.65;6.03;;;;;;;10.73;51.11;104171.22;5105007;28;20067;-56
2022/03/19 06:23:44;;;;;;;10.63;5.88;;;;;;;10.67;51.52;104169.09;5104039;28;20044;-56
2022/03/19 06:26:13;;;;;;;11.18;6.50;;;;;;;10.57;51.77;104169.09;4745737;28;10000155;-56
2022/03/19 06:28:40;;;;;;;12.82;6.05;;;;;;;10.50;51.65;104173.34;5099189;28;20087;-56
2022/03/19 06:31:08;;;;;;;11.43;6.30;;;;;;;10.41;52.09;104171.50;5101091;28;20056;-56
2022/03/19 06:33:36;;;;;;;12.10;5.43;;;;;;;10.34;52.62;104175.75;5099505;28;20081;-55
2022/03/19 06:38:51;;;;;;;11.45;6.50;;;;;;;10.22;52.75;104176.84;5095678;28;20184;-56
2022/03/19 06:41:18;;;;;;;14.32;7.45;;;;;;;10.17;53.28;104168.31;5099778;28;20123;-57
2022/03/19 06:43:46;;;;;;;12.73;6.55;;;;;;;10.16;52.75;104172.84;5098581;28;20126;-56
2022/03/19 06:46:14;;;;;;;12.40;6.35;;;;;;;10.12;53.64;104176.81;5099686;28;20119;-56
2022/03/19 06:48:42;;;;;;;15.23;6.60;;;;;;;10.09;53.49;104177.06;5100478;28;20047;-56
2022/03/19 06:51:09;;;;;;;11.85;6.07;;;;;;;10.05;54.13;104178.34;5091979;28;20107;-56
2022/03/19 06:53:37;;;;;;;12.90;6.15;;;;;;;10.01;54.19;104172.38;5098079;28;20090;-56
2022/03/19 06:56:07;;;;;;;11.43;7.15;;;;;;;10.02;54.08;104178.59;5100684;28;20131;-56
2022/03/19 06:58:36;;;;;;;13.32;6.70;;;;;;;10.00;53.73;104175.22;5093794;28;20076;-55
2022/03/19 07:01:04;;;;;;;14.10;6.43;;;;;;;10.01;54.14;104176.91;5099454;28;20084;-55
2022/03/19 07:03:32;;;;;;;11.65;6.28;;;;;;;10.03;54.41;104177.63;5095002;28;20052;-55
2022/03/19 07:06:00;;;;;;;15.93;5.90;;;;;;;10.02;54.26;104167.84;5099760;28;20043;-55
2022/03/19 07:08:50;;;;;;;10.25;6.35;;;;;;;10.04;54.10;104169.41;5099062;28;20473;-55
2022/03/19 07:11:19;;;;;;;11.93;6.43;;;;;;;10.05;53.93;104181.03;5098037;28;20475;-58
2022/03/19 07:13:46;;;;;;;13.35;6.10;;;;;;;10.06;53.92;104172.81;5098484;28;20055;-55
2022/03/19 07:16:15;;;;;;;11.13;5.72;;;;;;;10.08;54.11;104175.38;5094832;28;20565;-56
2022/03/19 07:18:43;;;;;;;15.90;6.22;;;;;;;10.06;54.46;104175.50;5097970;28;20052;-56
2022/03/19 07:21:12;;;;;;;13.00;6.32;;;;;;;10.08;54.07;104172.69;5093030;28;20135;-56
2022/03/19 07:23:40;;;;;;;11.20;6.85;;;;;;;10.09;54.15;104171.69;5098416;28;20048;-55
2022/03/19 07:26:07;;;;;;;10.63;6.00;;;;;;;10.08;54.16;104173.53;5094743;28;20090;-56
2022/03/19 07:28:36;;;;;;;12.32;5.80;;;;;;;10.08;54.36;104168.16;5098537;28;20095;-55
2022/03/19 07:31:04;;;;;;;16.13;7.15;;;;;;;10.07;53.95;104168.28;5099108;28;20111;-54
2022/03/19 07:33:34;;;;;;;12.98;5.75;;;;;;;10.05;54.11;104164.91;5098477;28;20051;-57
2022/03/19 07:36:03;;;;;;;13.38;5.68;;;;;;;10.02;53.90;104171.41;5093827;28;20083;-57
2022/03/19 07:38:31;;;;;;;11.52;5.63;;;;;;;10.01;54.25;104176.91;5097090;28;20081;-56
2022/03/19 07:43:46;;;;;;;13.20;6.45;;;;;;;9.96;55.52;104165.72;5087271;28;20087;-53
2022/03/19 07:46:14;;;;;;;14.45;6.45;;;;;;;9.87;55.90;104162.00;5090160;28;20471;-55
2022/03/19 07:48:42;;;;;;;15.75;6.78;;;;;;;9.85;55.57;104158.59;5098194;28;20091;-55
2022/03/19 07:51:09;;;;;;;15.63;6.88;;;;;;;9.82;55.35;104158.88;5100082;28;20100;-56
2022/03/19 07:53:38;;;;;;;12.98;7.00;;;;;;;9.89;56.05;104167.25;5099254;28;20063;-57
2022/03/19 07:56:06;;;;;;;11.35;5.82;;;;;;;9.91;55.58;104168.81;5099412;28;20536;-56
2022/03/19 07:58:33;;;;;;;12.40;5.95;;;;;;;9.93;55.58;104160.63;5098093;28;20048;-57
2022/03/19 08:01:03;;;;;;;17.30;5.60;;;;;;;9.90;55.15;104156.38;5098727;28;20656;-55
2022/03/19 08:03:31;;;;;;;16.10;6.53;;;;;;;9.93;54.95;104161.47;5098793;28;20140;-55
2022/03/19 08:05:59;;;;;;;12.80;5.88;;;;;;;9.94;55.62;104160.47;5094630;28;20106;-55
2022/03/19 08:08:27;;;;;;;12.63;6.00;;;;;;;9.95;55.41;104164.88;5095266;28;20595;-56
2022/03/19 08:10:55;;;;;;;10.63;5.40;;;;;;;9.98;55.31;104156.53;5097464;28;20106;-56
2022/03/19 08:13:23;;;;;;;11.85;4.80;;;;;;;10.00;54.74;104165.31;5092475;28;20055;-56
2022/03/19 08:15:51;;;;;;;10.48;5.20;;;;;;;10.01;55.17;104160.78;5096634;28;20066;-56
2022/03/19 08:18:20;;;;;;;10.27;5.32;;;;;;;10.02;55.51;104167.84;5098674;28;20063;-55
2022/03/19 08:20:48;;;;;;;10.90;5.70;;;;;;;10.04;54.99;104168.56;5096129;28;20465;-54
2022/03/19 08:23:16;;;;;;;10.18;5.38;;;;;;;10.01;54.73;104160.78;5092476;28;20079;-54
2022/03/19 08:25:44;;;;;;;12.55;5.57;;;;;;;9.99;55.72;104154.69;5098603;28;20090;-55
2022/03/19 08:28:11;;;;;;;11.68;5.72;;;;;;;9.96;55.64;104166.56;5099176;28;20071;-55
2022/03/19 08:30:40;;;;;;;12.15;6.30;;;;;;;9.94;55.26;104168.53;5095317;28;20441;-55
2022/03/19 08:33:08;;;;;;;14.05;5.68;;;;;;;9.96;55.68;104163.88;5097927;28;20094;-55
2022/03/19 08:35:37;;;;;;;10.52;5.28;;;;;;;9.94;55.44;104157.78;5099938;28;20052;-56
2022/03/19 08:40:50;;;;;;;10.88;5.10;;;;;;;10.00;55.12;104168.00;5099487;28;20135;-56
2022/03/19 08:43:18;;;;;;;17.80;6.53;;;;;;;10.02;55.83;104157.13;5094562;28;20059;-56
2022/03/19 08:45:46;;;;;;;11.82;4.88;;;;;;;10.05;55.32;104149.63;5091935;28;20117;-57
2022/03/19 08:48:13;;;;;;;11.63;5.95;;;;;;;10.09;55.44;104147.50;5100049;28;20131;-55
2022/03/19 08:50:42;;;;;;;11.32;4.85;;;;;;;10.14;55.38;104158.69;5103111;28;20092;-56
2022/03/19 08:53:10;;;;;;;12.27;5.15;;;;;;;10.13;55.43;104148.09;5090185;28;20071;-55
2022/03/19 08:55:38;;;;;;;11.60;4.40;;;;;;;10.17;55.09;104154.88;5101416;28;20052;-56
2022/03/19 08:58:06;;;;;;;13.05;5.43;;;;;;;10.16;55.44;104151.34;5090915;28;20052;-56
2022/03/19 09:00:34;;;;;;;13.10;5.43;;;;;;;10.19;55.08;104150.22;5096704;28;20078;-55
2022/03/19 09:03:02;;;;;;;14.82;5.15;;;;;;;10.20;55.45;104143.88;5101671;28;20083;-54
2022/03/19 09:05:32;;;;;;;12.55;4.80;;;;;;;10.21;55.49;104146.44;5101596;28;20048;-54
2022/03/19 09:08:01;;;;;;;8.65;4.22;;;;;;;10.26;54.80;104146.88;5093241;28;20450;-56
2022/03/19 09:10:30;;;;;;;11.82;5.30;;;;;;;10.28;55.14;104144.03;5104301;28;20101;-56
2022/03/19 09:12:57;;;;;;;7.47;4.45;;;;;;;10.29;54.53;104146.59;5096855;28;20459;-57
2022/03/19 09:15:26;;;;;;;9.05;3.70;;;;;;;10.28;54.78;104136.84;5102249;28;20059;-57
2022/03/19 09:17:54;;;;;;;11.32;4.85;;;;;;;10.27;55.37;104143.19;5105282;28;20063;-57
2022/03/19 09:20:23;;;;;;;11.90;4.15;;;;;;;10.29;55.31;104140.38;5105387;28;20079;-56
2022/03/19 09:22:50;;;;;;;6.75;3.80;;;;;;;10.34;55.37;104140.81;5101948;28;20040;-60
2022/03/19 09:25:20;;;;;;;12.68;5.07;;;;;;;10.37;55.45;104144.06;5099807;28;20076;-58
2022/03/19 09:27:47;;;;;;;9.85;4.82;;;;;;;10.31;55.42;104139.25;5099547;28;20100;-55
2022/03/19 09:30:15;;;;;;;14.52;5.07;;;;;;;10.31;54.99;104141.94;5098540;28;20055;-56
2022/03/19 09:32:43;;;;;;;18.30;5.55;;;;;;;10.30;55.57;104132.16;5099167;28;20401;-60
2022/03/19 09:35:30;;;;;;;8.88;4.60;;;;;;;10.37;55.48;104133.31;5102782;28;20063;-56
2022/03/19 09:37:58;;;;;;;7.97;4.47;;;;;;;10.41;55.43;104132.00;5096422;28;20075;-56
2022/03/19 09:40:28;;;;;;;13.27;6.07;;;;;;;10.42;54.99;104133.69;5097702;28;20066;-55
2022/03/19 09:42:57;;;;;;;10.85;5.10;;;;;;;10.41;55.30;104123.09;5097001;28;20076;-56
2022/03/19 09:45:29;;;;;;;14.40;4.05;;;;;;;10.46;55.58;104117.28;5098687;28;20089;-55
2022/03/19 09:47:57;;;;;;;9.95;5.43;;;;;;;10.44;56.12;104123.66;5098282;28;20071;-57
2022/03/19 09:50:26;;;;;;;16.55;4.55;;;;;;;10.50;55.56;104116.00;5099098;28;20095;-57
2022/03/19 09:52:55;;;;;;;10.07;4.78;;;;;;;10.48;55.34;104109.94;5090618;28;20211;-56
2022/03/19 09:55:27;;;;;;;12.35;4.40;;;;;;;10.46;55.35;104112.75;5101882;28;20051;-56
2022/03/19 09:57:57;;;;;;;12.15;4.47;;;;;;;10.50;55.09;104103.41;5101175;28;20063;-56
2022/03/19 10:00:26;;;;;;;8.85;4.15;;;;;;;10.52;55.34;104106.81;5101583;28;20056;-57
2022/03/19 10:02:59;;;;;;;9.95;3.75;;;;;;;10.58;55.32;104092.81;5097606;28;20082;-55
2022/03/19 10:11:01;;;;;;;9.60;3.53;;;;;;;10.75;55.29;104089.38;5094163;28;20060;-55
2022/03/19 10:13:30;;;;;;;10.75;3.90;;;;;;;10.73;54.63;104099.44;5096985;28;20062;-56
2022/03/19 10:15:58;;;;;;;13.68;3.80;;;;;;;10.74;54.49;104090.38;5099543;28;20588;-57
2022/03/19 10:18:27;;;;;;;12.88;3.75;;;;;;;10.77;54.46;104091.94;5101101;28;20135;-55
2022/03/19 10:20:55;;;;;;;9.70;4.07;;;;;;;10.81;54.39;104077.19;5089409;28;20071;-56
2022/03/19 10:23:32;;;;;;;11.98;4.28;;;;;;;10.84;54.17;104078.75;5100689;28;20044;-56
2022/03/19 10:26:00;;;;;;;15.05;5.55;;;;;;;10.88;53.66;104072.09;5099393;28;20056;-56
2022/03/19 10:28:34;;;;;;;13.40;4.15;;;;;;;10.90;54.00;104070.09;5098182;28;20068;-56
2022/03/19 10:31:03;;;;;;;9.57;3.20;;;;;;;10.88;53.72;104062.19;5097972;28;20336;-57
2022/03/19 10:33:32;;;;;;;13.13;4.15;;;;;;;10.95;52.62;104057.06;5096546;28;20055;-56
2022/03/19 10:36:08;;;;;;;10.05;4.13;;;;;;;11.00;52.79;104055.63;5099895;28;20076;-56
2022/03/19 10:38:43;;;;;;;11.52;3.72;;;;;;;11.03;52.59;104052.66;5098748;28;20107;-58
2022/03/19 10:41:12;;;;;;;17.80;3.92;;;;;;;11.12;52.64;104052.75;5100161;28;20333;-58
2022/03/19 10:43:45;;;;;;;18.17;3.90;;;;;;;11.22;53.28;104037.41;5094787;28;20100;-58
2022/03/19 10:46:13;;;;;;;10.10;3.38;;;;;;;11.27;52.34;104035.97;5101123;28;20056;-58
2022/03/19 10:48:41;;;;;;;19.63;3.83;;;;;;;11.28;51.32;104032.28;5101160;28;20052;-58
2022/03/19 10:51:10;;;;;;;10.32;4.20;;;;;;;11.31;51.07;104029.31;5092863;28;20090;-58
2022/03/19 10:53:38;;;;;;;11.18;3.92;;;;;;;11.32;50.87;104025.63;5099962;28;20075;-59
2022/03/19 10:56:06;;;;;;;10.45;3.22;;;;;;;11.34;50.30;104023.63;5101111;28;20083;-59
2022/03/19 10:58:47;;;;;;;8.75;3.03;;;;;;;11.36;49.87;104024.31;5098853;28;20062;-59
2022/03/19 11:01:16;;;;;;;11.70;3.70;;;;;;;11.40;49.54;104014.94;5101166;28;20048;-59
2022/03/19 11:03:45;;;;;;;7.85;2.97;;;;;;;11.44;50.44;104004.72;5100196;28;20520;-59
2022/03/19 11:06:14;;;;;;;8.90;2.95;;;;;;;11.45;49.88;103997.50;5100026;28;20100;-57
2022/03/19 11:08:44;;;;;;;13.60;3.00;;;;;;;11.62;49.91;104016.38;5102202;28;20067;-58
2022/03/19 11:11:17;;;;;;;7.75;2.60;;;;;;;11.62;50.09;103996.69;5101518;28;20043;-56
2022/03/19 11:13:49;;;;;;;10.52;2.78;;;;;;;11.63;50.30;103993.84;5099020;28;20071;-57
2022/03/19 11:16:19;;;;;;;7.55;3.30;;;;;;;11.65;48.12;103981.06;5094038;28;20489;-58
2022/03/19 11:18:50;;;;;;;6.18;2.03;;;;;;;11.70;49.13;103985.97;5102446;28;20123;-57
2022/03/19 11:21:19;;;;;;;8.18;2.72;;;;;;;11.79;49.32;103978.88;5097055;28;20052;-57
2022/03/19 11:23:51;;;;;;;7.03;2.30;;;;;;;11.74;47.63;103972.06;5100702;28;20047;-57
2022/03/19 11:26:23;;;;;;;11.00;2.97;;;;;;;11.80;48.27;103980.56;5099829;28;20063;-58
2022/03/19 11:28:53;;;;;;;8.38;2.67;;;;;;;11.79;45.79;103962.69;5095476;28;20094;-57
2022/03/19 11:31:26;;;;;;;8.88;3.17;;;;;;;11.82;47.05;103959.69;5103900;28;20083;-59
2022/03/19 11:33:58;;;;;;;7.47;2.70;;;;;;;11.82;46.82;103959.69;5098175;28;20130;-57
2022/03/19 11:36:26;;;;;;;10.18;3.00;;;;;;;11.83;46.12;103958.69;5102015;28;20462;-58
2022/03/19 11:38:56;;;;;;;6.28;2.50;;;;;;;11.84;44.62;103946.91;5102375;28;20094;-57
2022/03/19 11:41:26;;;;;;;6.50;2.55;;;;;;;11.84;43.26;103941.53;5104031;28;20052;-57
2022/03/19 11:44:20;;;;;;;8.77;2.40;;;;;;;11.86;44.11;103942.22;5099255;28;20155;-59
2022/03/19 11:46:59;;;;;;;7.00;2.72;;;;;;;11.88;44.98;103938.38;5095161;28;20052;-57
2022/03/19 11:49:52;;;;;;;11.55;2.67;;;;;;;11.93;45.60;103919.03;5099947;28;20143;-57